Airfield :
LOGIN :

Register | Disclaimer

   EN    FR    IT 

 










Legend :    VFR   Marginal VFR   IFR   Intensive IFR   Very Intensive IFR
Visi :
Ceiling :
>= 8 km
>= 3000ft
5 to 8 km
1000 to 3000 ft
1500m to 5 km
500 to 1000 ft
800 to 1500m
200 to 500 ft
< 800m
< 200 ft
Symbols :   Thunderstorms  Fog  Heavy snow  Heavy precipitations  Wind > 20 kt
SIGMETs :     Misc.  Thunderstorms  Icing  Turbulence  Mountain Waves  Volcanic Ashes






- Airport Elevation : 256 ft
- IATA code : CFR


LFRK - Caen

CURRENT METAR :
  • 191700Z AUTO 01008KT 9999 SCT025/// ///TCU 06/03 Q1045 TEMPO SHRA BECMG SCT025

EXPIRED METARs :
  • 191630Z AUTO 01009KT 350V050 9999 SCT023 07/04 Q1045 TEMPO SHRA
  • 191600Z AUTO 01010KT 330V030 9999 BKN024 BKN033 BKN042 07/03 Q1044 TEMPO SHRA
  • 191530Z AUTO 01011KT 9999 SCT026 BKN044 BKN052 08/04 Q1044 TEMPO SHRA
  • 191500Z AUTO 01012KT 350V050 9999 SCT023 SCT028 BKN042 08/03 Q1044 TEMPO SHRA
  • 191430Z AUTO 02010KT 350V050 9999 SCT026 SCT031 08/04 Q1043 TEMPO SHRA

TAF TAF LFRK
Valid from the 19 at 15:00 until the 20 at 00:00 UTC


191400Z 1915/1924 03010KT 9999 SCT025
PROB30
TEMPO 1915/1918 5000 SHRA
Met : +33 2 31 26 68 11



MET'MAP, your aeronautical weather chart ! - Copyright ORBIFLY December 2007 - Disclaimer

ORBIFLY MET'MAP TEAM :

Programming & Development : Alexandra Zaïnal
Concept & original design : Baudouin d'Aumeries
Assistance for programming : Marc-Olivier Méhu
Technical & hardware support : Manuel Goepfert

Contact : metmap@orbifly.com




SOURCES & CREDITS :

   NOAA